OMFJ/FJR METAR and TAF weather

Enter ICAO airport designator
Station Type Date Time Source
OMFJ METAR 2020/09/18 23:00 UTC NOAA

OMFJ 182300Z 31008KT 8000 NSC 33/M03 Q1003 A2963


Station Type Date Time Source
OMFJ Decoded METAR 2020/09/18 23:00 UTC NOAA

Fujairah, United Arab Emirates (OMFJ) 25-06N 056-20E 28M
Sep 18, 2020 - 07:00 PM EDT / 2020.09.18 2300 UTC
Wind: from the NW (310 degrees) at 9 MPH (8 KT):0
Visibility: 4 mile(s):0
Temperature: 91 F (33 C)
Dew Point: 26 F (-3 C)
Relative Humidity: 9%
Pressure (altimeter): 29.63 in. Hg (1003 hPa)
ob: OMFJ 182300Z 31008KT 8000 NSC 33/M03 Q1003 A2963
cycle: 23

Station Type Date Time Source
OMFJ TAF 2020/09/18 18:03 UTC NOAA

TAF TAF OMFJ 181700Z 1818/1924 29005KT 7000 NSC
TEMPO 1818/1903 4000 HZ
BECMG 1906/1908 09010KT
BECMG 1914/1916 VRB03KT

Example: see airport list